createdAt,value
2018-08-06T00:00:09.423Z,1.60
2018-08-06T00:02:37.814Z,1.60
2018-08-06T00:05:06.947Z,1.40
2018-08-06T00:07:35.293Z,1.73
2018-08-06T00:10:04.031Z,1.67
2018-08-06T00:12:32.350Z,1.77
2018-08-06T00:15:00.676Z,1.90
2018-08-06T00:17:29.088Z,1.93
2018-08-06T00:19:57.479Z,1.77
2018-08-06T00:22:25.795Z,1.90
2018-08-06T00:24:54.066Z,1.60
2018-08-06T00:27:22.647Z,1.87
2018-08-06T00:29:50.991Z,1.70
2018-08-06T00:32:19.275Z,1.97
2018-08-06T00:34:47.565Z,1.83
2018-08-06T00:37:15.908Z,1.60
2018-08-06T00:39:44.254Z,2.10
2018-08-06T00:42:12.620Z,2.00
2018-08-06T00:44:40.923Z,1.40
2018-08-06T00:47:09.259Z,1.80
2018-08-06T00:49:37.664Z,1.70
2018-08-06T00:52:06.143Z,2.00
2018-08-06T00:54:34.569Z,1.63
2018-08-06T00:57:03.214Z,1.90
2018-08-06T00:59:31.490Z,1.73
2018-08-06T01:01:59.840Z,1.97
2018-08-06T01:04:28.220Z,1.50
2018-08-06T01:06:56.542Z,1.60
2018-08-06T01:09:24.898Z,1.70
2018-08-06T01:11:53.231Z,1.60
2018-08-06T01:14:21.566Z,1.53
2018-08-06T01:16:49.913Z,1.57
2018-08-06T01:19:18.215Z,1.77
2018-08-06T01:21:46.602Z,1.53
2018-08-06T01:24:15.024Z,1.73
2018-08-06T01:26:43.508Z,1.63
2018-08-06T01:29:11.875Z,1.87
2018-08-06T01:31:40.160Z,1.30
2018-08-06T01:34:08.540Z,2.00
2018-08-06T01:36:36.840Z,1.70
2018-08-06T01:39:08.415Z,2.10
2018-08-06T01:41:37.612Z,1.80
2018-08-06T01:44:06.090Z,2.07
2018-08-06T01:46:34.600Z,1.70
2018-08-06T01:49:03.041Z,2.10
2018-08-06T01:51:31.407Z,1.77
2018-08-06T01:54:06.414Z,2.07
2018-08-06T01:56:34.813Z,1.60
2018-08-06T01:59:03.539Z,1.97
2018-08-06T02:01:31.924Z,1.70
2018-08-06T02:04:00.241Z,1.73
2018-08-06T02:06:28.600Z,1.83
2018-08-06T02:08:57.135Z,1.93
2018-08-06T02:11:25.503Z,1.40
2018-08-06T02:13:53.868Z,1.90
2018-08-06T02:16:22.318Z,1.90
2018-08-06T02:18:50.743Z,1.70
2018-08-06T02:21:19.192Z,2.27
2018-08-06T02:23:47.580Z,1.63
2018-08-06T02:26:15.923Z,2.20
2018-08-06T02:28:44.296Z,1.67
2018-08-06T02:31:12.672Z,1.43
2018-08-06T02:33:41.064Z,1.70
2018-08-06T02:36:09.474Z,1.80
2018-08-06T02:38:37.833Z,1.80
2018-08-06T02:41:06.438Z,1.70
2018-08-06T02:43:34.865Z,2.33
2018-08-06T02:46:03.354Z,1.90
2018-08-06T02:48:31.861Z,1.90
2018-08-06T02:51:00.264Z,1.77
2018-08-06T02:53:28.671Z,1.80
2018-08-06T02:55:57.113Z,2.00
2018-08-06T02:58:25.615Z,2.07
2018-08-06T03:00:53.941Z,1.90
2018-08-06T03:03:22.312Z,1.90
2018-08-06T03:05:50.659Z,1.70
2018-08-06T03:08:19.089Z,2.00
2018-08-06T03:10:47.452Z,2.00
2018-08-06T03:13:15.808Z,2.60
2018-08-06T03:15:44.301Z,2.10
2018-08-06T03:18:12.806Z,1.97
2018-08-06T03:20:41.271Z,1.93
2018-08-06T03:23:09.920Z,2.20
2018-08-06T03:25:38.520Z,1.93
2018-08-06T03:28:07.553Z,2.17
2018-08-06T03:30:36.137Z,1.97
2018-08-06T03:33:04.573Z,1.90
2018-08-06T03:35:33.091Z,1.73
2018-08-06T03:38:01.528Z,2.07
2018-08-06T03:40:29.931Z,2.07
2018-08-06T03:42:58.280Z,1.90
2018-08-06T03:45:26.628Z,1.90
2018-08-06T03:47:54.947Z,2.37
2018-08-06T03:50:23.363Z,2.17
2018-08-06T03:52:51.923Z,2.57
2018-08-06T03:55:20.198Z,2.23
2018-08-06T03:57:48.611Z,2.20
2018-08-06T04:00:17.093Z,2.50
2018-08-06T04:02:45.579Z,1.90
2018-08-06T04:05:15.146Z,2.07
2018-08-06T04:07:43.581Z,2.20
2018-08-06T04:10:13.773Z,1.93
2018-08-06T04:12:42.322Z,2.50
2018-08-06T04:15:11.491Z,2.50
2018-08-06T04:17:39.911Z,2.40
2018-08-06T04:20:09.766Z,2.40
2018-08-06T04:22:38.448Z,2.00
2018-08-06T04:25:07.553Z,2.47
2018-08-06T04:27:36.311Z,2.40
2018-08-06T04:30:07.570Z,2.10
2018-08-06T04:32:36.139Z,2.50
2018-08-06T04:35:04.738Z,1.70
2018-08-06T04:37:33.123Z,2.80
2018-08-06T04:40:01.451Z,2.43
2018-08-06T04:42:29.858Z,2.23
2018-08-06T04:44:58.407Z,2.10
2018-08-06T04:47:26.713Z,3.90
2018-08-06T04:49:55.127Z,7.10
2018-08-06T04:52:23.648Z,3.67
2018-08-06T04:54:52.151Z,2.87
2018-08-06T04:57:20.521Z,2.67
2018-08-06T04:59:48.967Z,2.40
2018-08-06T05:02:17.335Z,2.63
2018-08-06T05:04:45.692Z,2.50
2018-08-06T05:07:14.104Z,2.10
2018-08-06T05:09:43.717Z,2.33
2018-08-06T05:12:12.325Z,2.70
2018-08-06T05:14:42.264Z,2.47
2018-08-06T05:17:10.866Z,2.20
2018-08-06T05:19:39.397Z,2.17
2018-08-06T05:22:08.254Z,2.27
2018-08-06T05:24:36.993Z,2.50
2018-08-06T05:27:05.797Z,2.27
2018-08-06T05:29:34.328Z,2.70
2018-08-06T05:32:02.712Z,2.50
2018-08-06T05:34:31.063Z,3.33
2018-08-06T05:36:59.417Z,9.00
2018-08-06T05:39:27.949Z,7.77
2018-08-06T05:41:56.305Z,6.37
2018-08-06T05:44:24.650Z,5.87
2018-08-06T05:46:52.961Z,3.90
2018-08-06T05:49:28.028Z,5.33
2018-08-06T05:51:56.455Z,4.93
2018-08-06T05:54:24.852Z,5.83
2018-08-06T05:56:53.259Z,4.17
2018-08-06T05:59:21.606Z,2.80
2018-08-06T06:01:50.047Z,2.90
2018-08-06T06:04:19.145Z,3.07
2018-08-06T06:06:47.587Z,2.27
2018-08-06T06:09:15.940Z,2.63
2018-08-06T06:11:44.332Z,2.47
2018-08-06T06:14:12.820Z,2.67
2018-08-06T06:16:41.031Z,2.50
2018-08-06T06:19:09.919Z,2.80
2018-08-06T06:21:38.327Z,2.43
2018-08-06T06:24:06.851Z,2.53
2018-08-06T06:26:35.437Z,2.97
2018-08-06T06:29:03.958Z,2.77
2018-08-06T06:31:32.401Z,2.63
2018-08-06T06:34:00.820Z,2.47
2018-08-06T06:36:29.220Z,3.03
2018-08-06T06:38:57.613Z,2.87
2018-08-06T06:41:26.064Z,2.40
2018-08-06T06:43:54.550Z,2.57
2018-08-06T06:46:22.961Z,2.87
2018-08-06T06:48:52.425Z,2.40
2018-08-06T06:51:20.960Z,2.77
2018-08-06T06:53:49.474Z,2.30
2018-08-06T06:56:17.949Z,2.67
2018-08-06T06:58:46.371Z,2.20
2018-08-06T07:01:14.818Z,2.77
2018-08-06T07:03:43.235Z,2.60
2018-08-06T07:06:11.635Z,2.67
2018-08-06T07:08:40.046Z,2.60
2018-08-06T07:11:08.465Z,2.20
2018-08-06T07:13:36.884Z,2.47
2018-08-06T07:16:05.878Z,2.37
2018-08-06T07:18:34.204Z,2.53
2018-08-06T07:21:02.587Z,2.83
2018-08-06T07:23:31.035Z,2.53
2018-08-06T07:25:59.464Z,2.40
2018-08-06T07:28:27.849Z,2.80
2018-08-06T07:30:56.220Z,2.40
2018-08-06T07:33:24.788Z,2.83
2018-08-06T07:35:53.244Z,2.83
2018-08-06T07:38:21.588Z,3.10
2018-08-06T07:40:49.944Z,4.50
2018-08-06T07:43:18.312Z,4.30
2018-08-06T07:45:46.643Z,4.63
2018-08-06T07:48:15.210Z,2.50
2018-08-06T07:50:43.621Z,4.00
2018-08-06T07:53:12.013Z,5.20
2018-08-06T07:55:40.445Z,4.80
2018-08-06T07:58:08.861Z,4.63
2018-08-06T08:00:37.296Z,4.87
2018-08-06T08:03:05.771Z,4.00
2018-08-06T08:05:34.161Z,3.70
2018-08-06T08:08:02.780Z,5.20
2018-08-06T08:10:31.291Z,4.63
2018-08-06T08:13:03.251Z,3.87
2018-08-06T08:15:31.893Z,2.80
2018-08-06T08:18:01.524Z,2.30
2018-08-06T08:20:30.015Z,2.63
2018-08-06T08:22:58.473Z,2.67
2018-08-06T08:25:26.985Z,2.50
2018-08-06T08:27:55.450Z,2.53
2018-08-06T08:30:23.844Z,2.67
2018-08-06T08:32:52.743Z,2.60
2018-08-06T08:35:21.176Z,2.20
2018-08-06T08:37:49.526Z,2.30
2018-08-06T08:40:19.299Z,3.00
2018-08-06T08:45:22.460Z,2.50
2018-08-06T08:47:52.159Z,2.17
2018-08-06T08:50:20.933Z,2.30
2018-08-06T08:52:49.363Z,1.90
2018-08-06T08:55:19.017Z,1.87
2018-08-06T08:57:47.435Z,2.40
2018-08-06T09:00:19.571Z,2.08
2018-08-06T09:02:49.117Z,2.63
2018-08-06T09:05:18.117Z,2.90
2018-08-06T09:07:46.767Z,2.12
2018-08-06T09:10:16.428Z,2.20
2018-08-06T09:12:46.177Z,2.33
2018-08-06T09:15:24.503Z,1.85
2018-08-06T09:17:53.183Z,2.15
2018-08-06T09:20:22.490Z,2.40
2018-08-06T09:22:50.987Z,2.60
2018-08-06T09:25:19.480Z,2.10
2018-08-06T09:27:49.525Z,2.22
2018-08-06T09:30:20.065Z,2.12
2018-08-06T09:33:02.076Z,2.33
2018-08-06T09:35:30.457Z,2.45
2018-08-06T09:37:58.819Z,2.02
2018-08-06T09:40:27.545Z,1.85
2018-08-06T09:42:56.092Z,2.00
2018-08-06T09:45:24.545Z,2.10
2018-08-06T09:47:54.020Z,2.37
2018-08-06T09:50:22.856Z,2.33
2018-08-06T09:52:52.545Z,2.00
2018-08-06T09:55:23.470Z,1.92
2018-08-06T09:57:52.091Z,1.90
2018-08-06T10:00:26.840Z,2.10
2018-08-06T10:02:56.618Z,2.27
2018-08-06T10:05:25.900Z,2.12
2018-08-06T10:07:54.860Z,2.17
2018-08-06T10:10:23.643Z,2.20
2018-08-06T10:12:52.164Z,2.05
2018-08-06T10:15:21.043Z,2.40
2018-08-06T10:17:51.124Z,2.45
2018-08-06T10:20:20.940Z,2.20
2018-08-06T10:22:49.334Z,2.02
2018-08-06T10:25:17.826Z,2.22
2018-08-06T10:27:46.970Z,2.25
2018-08-06T10:30:21.622Z,2.37
2018-08-06T10:32:49.870Z,2.10
2018-08-06T10:35:19.036Z,2.05
2018-08-06T10:37:47.367Z,2.12
2018-08-06T10:40:23.796Z,2.87
2018-08-06T10:42:52.781Z,2.47
2018-08-06T10:45:22.266Z,2.35
2018-08-06T10:47:51.063Z,2.77
2018-08-06T10:50:19.412Z,1.95
2018-08-06T10:52:48.106Z,2.02
2018-08-06T10:55:16.209Z,2.05
2018-08-06T10:57:45.257Z,2.12
2018-08-06T11:00:15.878Z,2.35
2018-08-06T11:02:44.452Z,1.90
2018-08-06T11:05:13.779Z,2.40
2018-08-06T11:07:42.259Z,2.70
2018-08-06T11:10:15.696Z,2.45
2018-08-06T11:12:44.143Z,2.20
2018-08-06T11:15:16.097Z,2.35
2018-08-06T11:17:44.580Z,2.02
2018-08-06T11:20:14.196Z,2.20
2018-08-06T11:22:42.713Z,2.15
2018-08-06T11:25:12.682Z,2.10
2018-08-06T11:27:41.240Z,2.20
2018-08-06T11:30:11.727Z,2.20
2018-08-06T11:32:40.189Z,3.25
2018-08-06T11:35:09.608Z,3.15
2018-08-06T11:37:38.149Z,7.83
2018-08-06T11:40:07.847Z,4.08
2018-08-06T11:42:36.754Z,3.35
2018-08-06T11:45:05.601Z,3.47
2018-08-06T11:47:34.104Z,6.08
2018-08-06T11:50:02.539Z,3.40
2018-08-06T11:52:30.919Z,3.98
2018-08-06T11:54:59.344Z,2.62
2018-08-06T11:57:27.897Z,2.30
2018-08-06T11:59:56.364Z,5.37
2018-08-06T12:02:25.202Z,5.20
2018-08-06T12:04:53.832Z,7.15
2018-08-06T12:07:22.592Z,5.10
2018-08-06T12:09:51.726Z,4.00
2018-08-06T12:12:20.527Z,3.67
2018-08-06T12:14:49.040Z,3.15
2018-08-06T12:17:17.521Z,2.65
2018-08-06T12:19:46.027Z,3.15
2018-08-06T12:22:14.665Z,4.58
2018-08-06T12:24:43.237Z,3.47
2018-08-06T12:27:11.686Z,2.72
2018-08-06T12:29:40.077Z,2.30
2018-08-06T12:32:08.571Z,2.42
2018-08-06T12:34:37.129Z,2.55
2018-08-06T12:37:05.537Z,2.50
2018-08-06T12:39:34.038Z,2.47
2018-08-06T12:42:02.521Z,2.60
2018-08-06T12:44:31.009Z,3.02
2018-08-06T12:46:59.466Z,2.55
2018-08-06T12:49:28.045Z,2.50
2018-08-06T12:51:56.551Z,2.60
2018-08-06T12:54:25.069Z,2.95
2018-08-06T12:56:53.727Z,3.00
2018-08-06T12:59:22.297Z,2.75
2018-08-06T13:01:50.753Z,2.77
2018-08-06T13:04:20.202Z,2.42
2018-08-06T13:06:48.551Z,3.08
2018-08-06T13:09:17.171Z,2.60
2018-08-06T13:11:45.510Z,2.50
2018-08-06T13:14:14.083Z,2.45
2018-08-06T13:16:42.499Z,2.90
2018-08-06T13:19:10.906Z,2.75
2018-08-06T13:21:39.327Z,2.65
2018-08-06T13:24:07.735Z,2.83
2018-08-06T13:26:36.287Z,3.10
2018-08-06T13:29:04.750Z,2.95
2018-08-06T13:31:33.159Z,2.67
2018-08-06T13:34:01.511Z,2.80
2018-08-06T13:36:29.902Z,2.80
2018-08-06T13:38:58.347Z,2.95
2018-08-06T13:41:26.782Z,3.00
2018-08-06T13:43:55.346Z,3.12
2018-08-06T13:46:23.775Z,2.92
2018-08-06T13:48:52.226Z,2.60
2018-08-06T13:51:20.680Z,2.92
2018-08-06T13:53:49.120Z,3.02
2018-08-06T13:56:17.675Z,2.77
2018-08-06T13:58:46.072Z,2.60
2018-08-06T14:01:14.405Z,2.70
2018-08-06T14:03:42.814Z,3.30
2018-08-06T14:06:11.295Z,3.17
2018-08-06T14:08:39.664Z,3.10
2018-08-06T14:11:08.181Z,3.67
2018-08-06T14:13:36.581Z,3.30
2018-08-06T14:16:04.985Z,3.15
2018-08-06T14:18:33.473Z,3.30
2018-08-06T14:21:01.925Z,3.20
2018-08-06T14:23:30.328Z,3.27
2018-08-06T14:25:58.831Z,2.80
2018-08-06T14:28:27.223Z,3.40
2018-08-06T14:30:55.885Z,2.98
2018-08-06T14:33:24.398Z,3.20
2018-08-06T14:35:53.109Z,3.40
2018-08-06T14:38:21.507Z,3.37
2018-08-06T14:40:49.914Z,3.33
2018-08-06T14:43:18.395Z,3.30
2018-08-06T14:45:46.898Z,3.55
2018-08-06T14:48:15.287Z,3.20
2018-08-06T14:50:43.668Z,3.45
2018-08-06T14:53:12.062Z,3.33
2018-08-06T14:55:40.505Z,3.02
2018-08-06T14:58:09.003Z,2.90
2018-08-06T15:00:37.408Z,3.52
2018-08-06T15:03:06.343Z,3.40
2018-08-06T15:05:34.818Z,3.22
2018-08-06T15:08:03.236Z,3.00
2018-08-06T15:10:31.844Z,3.40
2018-08-06T15:13:06.801Z,3.75
2018-08-06T15:15:35.248Z,3.47
2018-08-06T15:18:03.714Z,3.67
2018-08-06T15:20:32.240Z,3.58
2018-08-06T15:23:00.724Z,3.62
2018-08-06T15:25:29.275Z,3.47
2018-08-06T15:27:57.703Z,3.50
2018-08-06T15:30:26.119Z,3.58
2018-08-06T15:32:54.623Z,3.45
2018-08-06T15:35:23.138Z,4.03
2018-08-06T15:37:51.655Z,4.10
2018-08-06T15:40:21.011Z,3.47
2018-08-06T15:42:49.399Z,4.00
2018-08-06T15:45:17.923Z,3.50
2018-08-06T15:47:46.669Z,3.90
2018-08-06T15:50:18.182Z,3.47
2018-08-06T15:52:46.723Z,5.50
2018-08-06T15:55:15.406Z,4.10
2018-08-06T15:57:43.843Z,3.90
2018-08-06T16:00:14.606Z,3.80
2018-08-06T16:02:43.199Z,3.92
2018-08-06T16:05:11.603Z,4.08
2018-08-06T16:07:40.290Z,3.50
2018-08-06T16:10:10.614Z,3.55
2018-08-06T16:12:39.049Z,3.83
2018-08-06T16:15:09.375Z,3.52
2018-08-06T16:17:38.337Z,3.27
2018-08-06T16:20:08.984Z,3.92
2018-08-06T16:22:37.746Z,4.05
2018-08-06T16:25:07.699Z,3.45
2018-08-06T16:27:36.152Z,3.83
2018-08-06T16:30:08.783Z,3.08
2018-08-06T16:32:37.223Z,3.25
2018-08-06T16:35:05.664Z,3.67
2018-08-06T16:37:34.179Z,3.55
2018-08-06T16:40:02.523Z,3.50
2018-08-06T16:42:30.957Z,3.98
2018-08-06T16:45:00.064Z,4.10
2018-08-06T16:47:28.503Z,3.62
2018-08-06T16:49:57.179Z,3.80
2018-08-06T16:52:25.586Z,4.10
2018-08-06T16:54:53.994Z,4.03
2018-08-06T16:57:22.571Z,3.75
2018-08-06T16:59:51.104Z,3.72
2018-08-06T17:02:19.655Z,3.80
2018-08-06T17:04:48.220Z,3.25
2018-08-06T17:07:16.752Z,3.30
2018-08-06T17:09:45.334Z,3.27
2018-08-06T17:12:13.857Z,3.70
2018-08-06T17:14:42.402Z,3.72
2018-08-06T17:17:10.984Z,3.55
2018-08-06T17:19:39.584Z,3.62
2018-08-06T17:22:08.125Z,3.40
2018-08-06T17:24:36.602Z,3.87
2018-08-06T17:27:05.180Z,4.35
2018-08-06T17:29:33.736Z,4.30
2018-08-06T17:32:02.111Z,4.05
2018-08-06T17:34:30.821Z,4.20
2018-08-06T17:36:59.248Z,3.67
2018-08-06T17:39:27.926Z,5.50
2018-08-06T17:41:56.877Z,4.55
2018-08-06T17:44:25.574Z,4.10
2018-08-06T17:46:54.554Z,3.70
2018-08-06T17:49:23.711Z,4.07
2018-08-06T17:51:52.674Z,4.40
2018-08-06T17:54:21.401Z,4.20
2018-08-06T17:56:50.314Z,3.90
2018-08-06T17:59:19.374Z,4.13
2018-08-06T18:01:48.201Z,4.20
2018-08-06T18:04:17.360Z,4.00
2018-08-06T18:06:46.647Z,4.37
2018-08-06T18:09:15.480Z,4.13
2018-08-06T18:11:44.406Z,3.77
2018-08-06T18:14:12.938Z,3.80
2018-08-06T18:16:42.672Z,4.50
2018-08-06T18:19:13.829Z,4.70
2018-08-06T18:21:42.770Z,4.20
2018-08-06T18:24:13.467Z,4.53
2018-08-06T18:26:42.673Z,4.50
2018-08-06T18:29:11.081Z,4.27
2018-08-06T18:31:39.714Z,4.03
2018-08-06T18:34:08.077Z,4.23
2018-08-06T18:36:36.649Z,4.27
2018-08-06T18:39:08.520Z,3.93
2018-08-06T18:41:36.940Z,3.90
2018-08-06T18:44:05.638Z,4.20
2018-08-06T18:46:34.264Z,5.07
2018-08-06T18:49:02.880Z,4.63
2018-08-06T18:51:31.690Z,4.87
2018-08-06T18:54:00.845Z,4.83
2018-08-06T18:56:29.361Z,5.10
2018-08-06T18:58:57.861Z,4.60
2018-08-06T19:01:26.605Z,4.70
2018-08-06T19:03:55.438Z,4.73
2018-08-06T19:06:24.906Z,4.83
2018-08-06T19:08:53.700Z,4.40
2018-08-06T19:11:22.773Z,4.43
2018-08-06T19:13:56.805Z,5.47
2018-08-06T19:16:25.899Z,5.17
2018-08-06T19:19:00.012Z,5.57
2018-08-06T19:21:28.834Z,5.33
2018-08-06T19:24:02.834Z,5.33
2018-08-06T19:26:31.581Z,5.00
2018-08-06T19:29:00.549Z,6.40
2018-08-06T19:31:29.150Z,4.97
2018-08-06T19:33:58.534Z,4.97
2018-08-06T19:36:30.219Z,4.80
2018-08-06T19:38:59.312Z,4.73
2018-08-06T19:41:28.141Z,5.60
2018-08-06T19:43:56.724Z,4.97
2018-08-06T19:46:25.819Z,5.13
2018-08-06T19:48:54.603Z,4.73
2018-08-06T19:51:23.462Z,5.00
2018-08-06T19:53:52.260Z,4.80
2018-08-06T19:56:22.027Z,4.80
2018-08-06T19:58:50.899Z,4.93
2018-08-06T20:01:19.727Z,5.57
2018-08-06T20:03:48.453Z,4.90
2018-08-06T20:06:17.746Z,5.40
2018-08-06T20:08:46.741Z,4.80
2018-08-06T20:11:15.544Z,5.13
2018-08-06T20:13:44.447Z,4.90
2018-08-06T20:16:13.410Z,4.97
2018-08-06T20:18:42.705Z,5.07
2018-08-06T20:21:11.519Z,5.27
2018-08-06T20:23:40.038Z,5.73
2018-08-06T20:26:08.774Z,5.50
2018-08-06T20:28:37.326Z,5.13
2018-08-06T20:31:05.799Z,5.60
2018-08-06T20:33:34.348Z,5.60
2018-08-06T20:36:02.754Z,5.60
2018-08-06T20:38:31.143Z,5.47
2018-08-06T20:40:59.584Z,5.47
2018-08-06T20:43:28.133Z,4.70
2018-08-06T20:45:56.549Z,5.53
2018-08-06T20:48:24.854Z,5.03
2018-08-06T20:50:53.252Z,5.67
2018-08-06T20:53:21.695Z,5.37
2018-08-06T20:55:50.126Z,5.03
2018-08-06T20:58:18.639Z,4.77
2018-08-06T21:00:47.095Z,5.37
2018-08-06T21:03:15.607Z,5.13
2018-08-06T21:05:44.199Z,4.80
2018-08-06T21:08:12.809Z,4.73
2018-08-06T21:10:41.325Z,5.37
2018-08-06T21:13:09.945Z,5.03
2018-08-06T21:15:38.417Z,4.50
2018-08-06T21:18:06.977Z,4.93
2018-08-06T21:20:35.458Z,5.00
2018-08-06T21:23:03.939Z,5.10
2018-08-06T21:25:32.312Z,5.20
2018-08-06T21:28:00.730Z,5.10
2018-08-06T21:30:29.131Z,5.23
2018-08-06T21:32:58.187Z,5.40
2018-08-06T21:35:27.882Z,4.73
2018-08-06T21:37:56.681Z,5.13
2018-08-06T21:40:25.692Z,5.37
2018-08-06T21:42:54.155Z,5.30
2018-08-06T21:45:22.595Z,4.70
2018-08-06T21:47:51.496Z,4.83
2018-08-06T21:50:20.011Z,5.33
2018-08-06T21:52:48.423Z,4.80
2018-08-06T21:55:16.888Z,4.70
2018-08-06T21:57:45.302Z,4.53
2018-08-06T22:00:40.253Z,4.63
2018-08-06T22:03:13.155Z,4.83
2018-08-06T22:05:41.775Z,5.00
2018-08-06T22:08:10.279Z,4.60
2018-08-06T22:10:38.676Z,5.50
2018-08-06T22:13:07.528Z,5.00
2018-08-06T22:15:35.999Z,4.63
2018-08-06T22:18:04.625Z,5.10
2018-08-06T22:20:33.015Z,5.07
2018-08-06T22:23:01.392Z,4.67
2018-08-06T22:25:29.997Z,4.93
2018-08-06T22:27:58.325Z,4.70
2018-08-06T22:30:26.726Z,4.97
2018-08-06T22:32:55.168Z,4.90
2018-08-06T22:35:23.548Z,4.90
2018-08-06T22:37:52.000Z,4.53
2018-08-06T22:40:20.384Z,4.80
2018-08-06T22:42:48.763Z,4.80
2018-08-06T22:45:17.219Z,5.00
2018-08-06T22:47:45.757Z,5.00
2018-08-06T22:50:14.302Z,5.33
2018-08-06T22:52:42.965Z,5.10
2018-08-06T22:55:12.829Z,5.03
2018-08-06T22:57:41.942Z,5.27
2018-08-06T23:00:12.366Z,4.83
2018-08-06T23:02:41.604Z,4.90
2018-08-06T23:05:10.983Z,4.97
2018-08-06T23:07:39.072Z,4.53
2018-08-06T23:10:10.104Z,4.90
2018-08-06T23:12:38.444Z,5.07
2018-08-06T23:15:09.209Z,5.17
2018-08-06T23:17:37.616Z,4.83
2018-08-06T23:20:06.721Z,5.03
2018-08-06T23:22:35.099Z,5.30
2018-08-06T23:25:03.871Z,5.17
2018-08-06T23:27:32.230Z,5.17
2018-08-06T23:30:00.680Z,5.53
2018-08-06T23:32:29.033Z,4.93
2018-08-06T23:34:57.379Z,5.40
2018-08-06T23:37:32.359Z,4.77
2018-08-06T23:40:08.463Z,5.57
2018-08-06T23:42:37.232Z,5.60
2018-08-06T23:45:07.040Z,5.10
2018-08-06T23:47:35.633Z,5.23
2018-08-06T23:50:04.978Z,5.53
2018-08-06T23:52:33.377Z,5.60
2018-08-06T23:55:01.792Z,5.77
2018-08-06T23:57:30.246Z,4.90
2018-08-06T23:59:58.996Z,4.30
